VICX/KNU METAR and TAF weather

Enter ICAO airport designator
Station Type Date Time Source
VICX METAR 2021/11/01 00:30 UTC NOAA

VICX 010030Z 00000KT 1000 BR 16/16 Q1014 BECMG 800


Station Type Date Time Source
VICX Decoded METAR 2021/11/01 00:30 UTC NOAA

Kanpur / Chakeri, India (VICX) 26-24N 080-24E 126M
Oct 31, 2021 - 08:30 PM EDT / 2021.11.01 0030 UTC
Wind: Calm:0
Visibility: less than 1 mile:0
Weather: mist
Temperature: 60 F (16 C)
Dew Point: 60 F (16 C)
Relative Humidity: 100%
Pressure (altimeter): 29.94 in. Hg (1014 hPa)
ob: VICX 010030Z 00000KT 1000 BR 16/16 Q1014 BECMG 800
cycle: 0

Station Type Date Time Source
VICX TAF 2020/02/24 06:30 UTC NOAA

TAF VICX 240330Z 2406/2418 07005KT 5000 HZ SCT100 SCT250
BECMG 2409/2412 6000 SCT100 SCT250TAF VEKU 240330Z 2406/2418 10003KT 6000 FEW025 SCT100 BKN250

Example: see airport list